Etusivu
METAR-TAF:

METAR-TAF

Lentoasemat :

Khartum, Sudan

Leveyspiiri: 15-36N, Pituuspiiri: 032-33E, korkeus merenpinnasta: 382 m

Tämänhetkinen sää

Tämä raportti tehtiin 37 minuuttia sitten, kello 13.00 UTC
Tuuli 5 kn lännestä
Lämpötila 43°C
Kosteus 9%
Ilmanpaine 1006 hPa
Näkyvyys 10 km tai enemmän
Hajanaisia pilviä 5000 ft:n korkeudessa

METAR: HSSS 231300Z 26005KT 9999 SCT050 43/04 Q1006 NOSIG

Aika: 16:37 (13:37 UTC)

Sääennuste

Tämä raportti tehtiin 2 tuntia ja 37 minuuttia sitten, kello 11.00 UTC
Ennuste voimassa 23. päivästä klo 12 UTC - 24. päivään klo 18 UTC
Tuuli 12 kn koillisesta puuskistuen 22 kn:hen
Näkyvyys: 6000 m
Ajoittain
23. päivästä klo 12 UTC - 23. päivään klo 15 UTC
Näkyvyys: 6000 m
Muutamia pilviä 4000 ft:n korkeudessa

TAF: HSSS 231100Z 2312/2418 05012G22KT 6000 TEMPO 2312/2315 6000 FEW040

Säähavainnot ja -ennusteet yli 4000 lentoasemalta (METAR- ja TAF-raportit).

Käytössä olevat sääasemat on merkitty karttaan keltaisilla ja punaisilla pisteillä.

Aseta hiiri pisteen päälle nähdäksesi sääaseman nimen.

Klikkaa sitten nähdäksesi säähavainnot ja -ennusteet.

Kartan vaihtaminen: klikkaa mustalla rastilla varustettuja vihreitä pisteitä, niin voit zoomata sisään; viivalla varustettua vihreää pistettä, niin voit zoomata ulos tai vihreitä nuolia, niin pääset viereisille kartoille.


METAR-TAF: